Fort Morgan, Colorado
Current Conditions -  °F | °C
As of 8:35 PM on Friday 19 Dec 2014 (Local Time) from KFMM Reporting Station
Clear Clear  
Wind Chill: 31°   Ceiling: Unl
Heat Index: 31°   Visibility: 10mi
Dew Point: 22°   Wind: 0mph
Humidity: 70%   Direction: NA
Pressure: 30.03"   Gusts: NA
Location:  40.25°N, 103.8°W
Report Text: KFMM 200335Z AUTO 00000KT 10SM CLR M01/M06 A3003 RMK AO2 T10081057
Loading
Personal Weather Stations






























Interactive Weather Map New forecast layout! Learn more

10-Day Weather Forecast

Advertisements
Track Severe Weather on mobile